createdAt,value
2017-08-07T00:01:12.212Z,99041.96
2017-08-07T00:03:39.674Z,99041.98
2017-08-07T00:06:07.165Z,99040.80
2017-08-07T00:08:34.649Z,99033.53
2017-08-07T00:11:02.114Z,99037.14
2017-08-07T00:13:29.573Z,99039.91
2017-08-07T00:15:57.052Z,99041.81
2017-08-07T00:18:24.510Z,99044.22
2017-08-07T00:20:52.201Z,99045.45
2017-08-07T00:23:19.666Z,99041.57
2017-08-07T00:25:47.420Z,99044.31
2017-08-07T00:28:14.874Z,99042.67
2017-08-07T00:30:42.331Z,99042.33
2017-08-07T00:33:09.808Z,99041.83
2017-08-07T00:35:37.261Z,99039.76
2017-08-07T00:38:05.030Z,99040.92
2017-08-07T00:40:32.670Z,99033.39
2017-08-07T00:43:00.129Z,99029.27
2017-08-07T00:45:27.608Z,99026.88
2017-08-07T00:47:55.067Z,99038.37
2017-08-07T00:50:22.937Z,99028.25
2017-08-07T00:52:50.393Z,99030.32
2017-08-07T00:55:17.849Z,99027.92
2017-08-07T00:57:45.334Z,99023.52
2017-08-07T01:00:12.810Z,99019.83
2017-08-07T01:02:40.295Z,99020.38
2017-08-07T01:05:07.757Z,99018.30
2017-08-07T01:07:35.237Z,99014.46
2017-08-07T01:10:02.694Z,99010.56
2017-08-07T01:12:30.169Z,99012.45
2017-08-07T01:14:57.625Z,99013.10
2017-08-07T01:17:25.310Z,99014.25
2017-08-07T01:19:52.784Z,99017.89
2017-08-07T01:22:20.246Z,99013.40
2017-08-07T01:24:47.728Z,99019.56
2017-08-07T01:27:15.189Z,99019.19
2017-08-07T01:29:42.675Z,99019.98
2017-08-07T01:32:10.126Z,99018.95
2017-08-07T01:34:37.612Z,99009.16
2017-08-07T01:37:05.078Z,99010.12
2017-08-07T01:39:32.533Z,99011.49
2017-08-07T01:42:00.029Z,99008.91
2017-08-07T01:44:27.491Z,99009.48
2017-08-07T01:46:54.953Z,99013.19
2017-08-07T01:49:22.587Z,99003.73
2017-08-07T01:51:50.046Z,99008.96
2017-08-07T01:54:17.509Z,99000.76
2017-08-07T01:56:45.002Z,99003.64
2017-08-07T01:59:12.474Z,99002.22
2017-08-07T02:01:39.929Z,99007.59
2017-08-07T02:04:07.518Z,99009.49
2017-08-07T02:06:34.977Z,99007.16
2017-08-07T02:09:02.434Z,99007.83
2017-08-07T02:11:29.916Z,98997.52
2017-08-07T02:13:57.393Z,99002.48
2017-08-07T02:16:24.874Z,99001.95
2017-08-07T02:18:52.328Z,99002.16
2017-08-07T02:21:19.808Z,98992.20
2017-08-07T02:23:47.269Z,98995.89
2017-08-07T02:26:14.749Z,98994.44
2017-08-07T02:28:42.242Z,99000.11
2017-08-07T02:31:09.699Z,98997.51
2017-08-07T02:33:37.172Z,98989.81
2017-08-07T02:36:04.654Z,98992.91
2017-08-07T02:38:32.150Z,98998.83
2017-08-07T02:40:59.784Z,98995.74
2017-08-07T02:43:27.246Z,98997.48
2017-08-07T02:45:54.705Z,99004.91
2017-08-07T02:48:22.184Z,99001.09
2017-08-07T02:50:49.657Z,99009.61
2017-08-07T02:53:17.134Z,99003.66
2017-08-07T02:55:44.605Z,99003.27
2017-08-07T02:58:12.091Z,99000.10
2017-08-07T03:00:39.576Z,98997.52
2017-08-07T03:03:07.038Z,98988.70
2017-08-07T03:05:34.525Z,98986.24
2017-08-07T03:08:01.981Z,98986.62
2017-08-07T03:10:29.486Z,98979.60
2017-08-07T03:12:56.962Z,98975.81
2017-08-07T03:15:24.436Z,98974.61
2017-08-07T03:17:51.896Z,98975.38
2017-08-07T03:20:19.385Z,98974.75
2017-08-07T03:22:46.846Z,98975.38
2017-08-07T03:25:14.305Z,98979.79
2017-08-07T03:27:41.786Z,98982.77
2017-08-07T03:30:09.250Z,98983.70
2017-08-07T03:32:36.716Z,98985.81
2017-08-07T03:35:04.201Z,98988.58
2017-08-07T03:37:31.684Z,98993.59
2017-08-07T03:39:59.167Z,98988.56
2017-08-07T03:42:26.644Z,98984.29
2017-08-07T03:44:54.094Z,98980.56
2017-08-07T03:47:21.570Z,98984.89
2017-08-07T03:49:49.063Z,98983.97
2017-08-07T03:52:16.520Z,98982.06
2017-08-07T03:54:43.974Z,98986.14
2017-08-07T03:57:11.446Z,98982.68
2017-08-07T03:59:38.910Z,98986.00
2017-08-07T04:02:06.393Z,98980.75
2017-08-07T04:04:33.851Z,98987.56
2017-08-07T04:07:01.301Z,98983.52
2017-08-07T04:09:28.787Z,98980.11
2017-08-07T04:11:56.588Z,98986.69
2017-08-07T04:14:24.043Z,98988.56
2017-08-07T04:16:51.543Z,98980.75
2017-08-07T04:19:19.038Z,98977.48
2017-08-07T04:21:46.962Z,98969.20
2017-08-07T04:24:14.412Z,98979.45
2017-08-07T04:26:41.869Z,98973.69
2017-08-07T04:29:09.345Z,98973.72
2017-08-07T04:31:36.821Z,98980.68
2017-08-07T04:34:04.560Z,98975.30
2017-08-07T04:36:32.012Z,98965.55
2017-08-07T04:38:59.463Z,98969.25
2017-08-07T04:41:26.941Z,98959.13
2017-08-07T04:43:54.400Z,98959.40
2017-08-07T04:46:21.878Z,98959.38
2017-08-07T04:48:49.341Z,98956.98
2017-08-07T04:51:16.792Z,98955.03
2017-08-07T04:53:44.410Z,98959.47
2017-08-07T04:56:11.864Z,98956.80
2017-08-07T04:58:39.312Z,98954.55
2017-08-07T05:01:07.229Z,98956.22
2017-08-07T05:03:34.685Z,98950.41
2017-08-07T05:06:02.141Z,98954.90
2017-08-07T05:08:29.614Z,98949.97
2017-08-07T05:10:57.064Z,98948.56
2017-08-07T05:13:24.841Z,98952.23
2017-08-07T05:15:52.293Z,98953.50
2017-08-07T05:18:19.749Z,98952.88
2017-08-07T05:20:47.223Z,98951.47
2017-08-07T05:23:14.685Z,98960.03
2017-08-07T05:25:42.451Z,98955.48
2017-08-07T05:28:09.912Z,98958.31
2017-08-07T05:30:37.388Z,98958.39
2017-08-07T05:33:05.325Z,98952.47
2017-08-07T05:35:32.779Z,98954.05
2017-08-07T05:38:00.264Z,98954.34
2017-08-07T05:40:27.724Z,98951.90
2017-08-07T05:42:55.204Z,98959.00
2017-08-07T05:45:22.654Z,98953.79
2017-08-07T05:47:50.130Z,98960.97
2017-08-07T05:50:17.591Z,98955.88
2017-08-07T05:52:45.081Z,98957.23
2017-08-07T05:55:12.538Z,98952.28
2017-08-07T05:57:39.990Z,98951.41
2017-08-07T06:00:07.477Z,98945.06
2017-08-07T06:02:34.928Z,98941.55
2017-08-07T06:05:02.409Z,98945.12
2017-08-07T06:07:29.860Z,98940.85
2017-08-07T06:09:57.317Z,98939.48
2017-08-07T06:12:24.789Z,98935.27
2017-08-07T06:14:52.237Z,98935.06
2017-08-07T06:17:19.705Z,98932.84
2017-08-07T06:19:47.181Z,98928.88
2017-08-07T06:22:14.661Z,98932.37
2017-08-07T06:24:42.141Z,98936.81
2017-08-07T06:27:09.618Z,98933.13
2017-08-07T06:29:37.101Z,98934.61
2017-08-07T06:32:04.551Z,98929.13
2017-08-07T06:34:32.254Z,98937.09
2017-08-07T06:36:59.707Z,98933.25
2017-08-07T06:39:27.173Z,98928.33
2017-08-07T06:41:54.653Z,98926.59
2017-08-07T06:44:22.137Z,98926.60
2017-08-07T06:46:49.627Z,98924.44
2017-08-07T06:49:17.077Z,98922.28
2017-08-07T06:51:44.569Z,98924.02
2017-08-07T06:54:12.030Z,98922.51
2017-08-07T06:56:39.519Z,98924.06
2017-08-07T06:59:06.981Z,98922.30
2017-08-07T07:01:34.445Z,98918.47
2017-08-07T07:04:02.379Z,98913.47
2017-08-07T07:06:29.844Z,98916.34
2017-08-07T07:08:57.298Z,98914.55
2017-08-07T07:11:24.774Z,98911.02
2017-08-07T07:13:52.258Z,98912.26
2017-08-07T07:16:19.707Z,98911.06
2017-08-07T07:18:47.177Z,98903.77
2017-08-07T07:21:14.629Z,98902.76
2017-08-07T07:23:42.276Z,98897.17
2017-08-07T07:26:09.738Z,98898.94
2017-08-07T07:28:37.186Z,98894.73
2017-08-07T07:31:04.653Z,98896.93
2017-08-07T07:33:32.111Z,98896.44
2017-08-07T07:35:59.593Z,98895.55
2017-08-07T07:38:27.045Z,98888.14
2017-08-07T07:40:54.493Z,98895.13
2017-08-07T07:43:21.965Z,98890.00
2017-08-07T07:45:49.412Z,98897.23
2017-08-07T07:48:16.898Z,98892.89
2017-08-07T07:50:44.353Z,98898.89
2017-08-07T07:53:11.840Z,98886.59
2017-08-07T07:55:39.294Z,98891.62
2017-08-07T07:58:06.743Z,98887.94
2017-08-07T08:00:34.359Z,98890.87
2017-08-07T08:03:01.847Z,98889.05
2017-08-07T08:05:29.457Z,98882.03
2017-08-07T08:07:56.909Z,98884.47
2017-08-07T08:10:24.368Z,98884.67
2017-08-07T08:12:51.828Z,98884.27
2017-08-07T08:15:19.282Z,98876.52
2017-08-07T08:17:46.748Z,98879.93
2017-08-07T08:20:14.233Z,98877.77
2017-08-07T08:22:41.712Z,98881.07
2017-08-07T08:25:09.154Z,98877.81
2017-08-07T08:27:36.617Z,98882.63
2017-08-07T08:30:04.082Z,98877.36
2017-08-07T08:32:31.532Z,98885.70
2017-08-07T08:34:59.021Z,98878.53
2017-08-07T08:37:26.526Z,98875.89
2017-08-07T08:39:53.979Z,98879.39
2017-08-07T08:42:21.450Z,98880.28
2017-08-07T08:44:48.900Z,98879.05
2017-08-07T08:47:16.375Z,98874.11
2017-08-07T08:49:43.844Z,98871.74
2017-08-07T08:52:12.244Z,98877.36
2017-08-07T08:54:39.695Z,98872.37
2017-08-07T08:57:07.148Z,98875.31
2017-08-07T08:59:34.593Z,98873.95
2017-08-07T09:02:02.075Z,98868.08
2017-08-07T09:04:29.548Z,98863.52
2017-08-07T09:06:57.013Z,98860.78
2017-08-07T09:09:24.450Z,98860.33
2017-08-07T09:11:51.917Z,98859.74
2017-08-07T09:14:19.369Z,98860.31
2017-08-07T09:16:46.840Z,98857.33
2017-08-07T09:19:14.296Z,98854.13
2017-08-07T09:21:41.772Z,98851.02
2017-08-07T09:24:09.217Z,98851.81
2017-08-07T09:26:36.673Z,98847.85
2017-08-07T09:29:04.134Z,98846.95
2017-08-07T09:31:31.601Z,98838.33
2017-08-07T09:33:59.077Z,98841.38
2017-08-07T09:36:26.545Z,98839.19
2017-08-07T09:38:53.993Z,98829.06
2017-08-07T09:41:21.462Z,98836.34
2017-08-07T09:43:49.087Z,98837.36
2017-08-07T09:46:16.552Z,98833.39
2017-08-07T09:48:44.020Z,98842.28
2017-08-07T09:51:11.480Z,98831.68
2017-08-07T09:53:38.921Z,98828.67
2017-08-07T09:56:06.396Z,98821.98
2017-08-07T09:58:33.848Z,98822.05
2017-08-07T10:01:01.320Z,98817.92
2017-08-07T10:03:28.786Z,98811.06
2017-08-07T10:05:56.262Z,98804.34
2017-08-07T10:08:23.729Z,98805.82
2017-08-07T10:10:51.180Z,98805.11
2017-08-07T10:13:18.663Z,98802.14
2017-08-07T10:15:46.137Z,98797.37
2017-08-07T10:18:13.590Z,98796.76
2017-08-07T10:20:41.069Z,98798.28
2017-08-07T10:23:08.512Z,98799.78
2017-08-07T10:25:35.988Z,98795.08
2017-08-07T10:28:03.452Z,98790.75
2017-08-07T10:30:30.894Z,98789.79
2017-08-07T10:32:58.373Z,98784.45
2017-08-07T10:35:25.828Z,98780.20
2017-08-07T10:37:53.284Z,98776.68
2017-08-07T10:40:20.753Z,98781.72
2017-08-07T10:42:48.225Z,98773.78
2017-08-07T10:45:15.668Z,98777.10
2017-08-07T10:47:43.373Z,98768.77
2017-08-07T10:50:10.825Z,98770.67
2017-08-07T10:52:38.282Z,98764.47
2017-08-07T10:55:06.070Z,98763.84
2017-08-07T10:57:33.514Z,98758.70
2017-08-07T11:00:00.958Z,98757.86
2017-08-07T11:02:28.429Z,98757.09
2017-08-07T11:04:55.881Z,98750.70
2017-08-07T11:07:23.490Z,98741.63
2017-08-07T11:09:50.941Z,98741.55
2017-08-07T11:12:18.385Z,98734.17
2017-08-07T11:14:45.845Z,98730.31
2017-08-07T11:17:13.290Z,98728.09
2017-08-07T11:19:40.748Z,98722.25
2017-08-07T11:22:08.211Z,98715.22
2017-08-07T11:24:35.656Z,98720.68
2017-08-07T11:27:03.142Z,98715.35
2017-08-07T11:29:30.601Z,98717.05
2017-08-07T11:31:58.060Z,98709.55
2017-08-07T11:34:25.532Z,98705.08
2017-08-07T11:36:52.994Z,98703.98
2017-08-07T11:39:20.646Z,98703.39
2017-08-07T11:41:48.099Z,98698.10
2017-08-07T11:44:15.540Z,98696.84
2017-08-07T11:46:43.005Z,98693.48
2017-08-07T11:49:10.452Z,98694.34
2017-08-07T11:51:37.925Z,98691.63
2017-08-07T11:54:05.372Z,98677.91
2017-08-07T11:56:32.833Z,98678.17
2017-08-07T11:59:00.636Z,98668.13
2017-08-07T12:01:28.081Z,98665.80
2017-08-07T12:03:55.535Z,98666.30
2017-08-07T12:06:23.002Z,98663.85
2017-08-07T12:08:50.443Z,98666.81
2017-08-07T12:11:18.253Z,98661.23
2017-08-07T12:13:45.702Z,98661.02
2017-08-07T12:16:13.158Z,98651.23
2017-08-07T12:18:40.624Z,98648.77
2017-08-07T12:21:08.068Z,98649.00
2017-08-07T12:23:35.553Z,98650.68
2017-08-07T12:26:02.998Z,98640.02
2017-08-07T12:28:30.446Z,98644.73
2017-08-07T12:30:57.923Z,98644.72
2017-08-07T12:33:25.383Z,98637.59
2017-08-07T12:35:52.831Z,98640.33
2017-08-07T12:38:20.300Z,98637.73
2017-08-07T12:40:47.751Z,98633.20
2017-08-07T12:43:15.233Z,98631.62
2017-08-07T12:45:42.677Z,98631.41
2017-08-07T12:48:10.140Z,98629.75
2017-08-07T12:50:37.598Z,98628.16
2017-08-07T12:53:05.046Z,98622.02
2017-08-07T12:55:32.522Z,98619.89
2017-08-07T12:57:59.962Z,98615.03
2017-08-07T13:00:27.761Z,98612.65
2017-08-07T13:02:55.209Z,98613.80
2017-08-07T13:05:22.660Z,98613.73
2017-08-07T13:07:50.147Z,98607.58
2017-08-07T13:10:17.606Z,98602.52
2017-08-07T13:12:45.057Z,98601.80
2017-08-07T13:15:12.524Z,98605.71
2017-08-07T13:17:40.000Z,98600.19
2017-08-07T13:20:07.453Z,98592.53
2017-08-07T13:22:34.921Z,98584.20
2017-08-07T13:25:02.408Z,98592.44
2017-08-07T13:27:29.857Z,98582.47
2017-08-07T13:29:57.301Z,98578.35
2017-08-07T13:32:24.772Z,98579.58
2017-08-07T13:34:52.247Z,98574.68
2017-08-07T13:37:19.702Z,98561.45
2017-08-07T13:39:47.431Z,98569.05
2017-08-07T13:42:14.885Z,98568.73
2017-08-07T13:44:42.330Z,98564.83
2017-08-07T13:47:10.112Z,98563.77
2017-08-07T13:49:37.553Z,98562.77
2017-08-07T13:52:04.995Z,98560.69
2017-08-07T13:54:32.472Z,98550.98
2017-08-07T13:56:59.922Z,98553.66
2017-08-07T13:59:27.628Z,98551.33
2017-08-07T14:01:55.077Z,98553.61
2017-08-07T14:04:22.521Z,98541.33
2017-08-07T14:06:49.998Z,98547.91
2017-08-07T14:09:17.445Z,98529.19
2017-08-07T14:11:44.894Z,98539.73
2017-08-07T14:14:12.377Z,98521.03
2017-08-07T14:16:39.826Z,98521.73
2017-08-07T14:19:07.305Z,98527.55
2017-08-07T14:21:34.749Z,98517.56
2017-08-07T14:24:02.217Z,98520.95
2017-08-07T14:26:29.996Z,98509.39
2017-08-07T14:28:57.482Z,98513.15
2017-08-07T14:31:24.953Z,98507.44
2017-08-07T14:33:52.461Z,98503.30
2017-08-07T14:36:19.945Z,98502.48
2017-08-07T14:38:47.393Z,98497.81
2017-08-07T14:41:14.871Z,98495.77
2017-08-07T14:43:42.607Z,98490.12
2017-08-07T14:46:10.052Z,98497.82
2017-08-07T14:48:37.505Z,98492.30
2017-08-07T14:51:04.974Z,98496.23
2017-08-07T14:53:32.756Z,98491.79
2017-08-07T14:56:00.205Z,98493.91
2017-08-07T14:58:27.676Z,98484.46
2017-08-07T15:00:55.501Z,98487.02
2017-08-07T15:03:24.089Z,98493.23
2017-08-07T15:05:51.556Z,98490.93
2017-08-07T15:08:19.013Z,98489.98
2017-08-07T15:10:46.470Z,98489.19
2017-08-07T15:13:14.861Z,98492.61
2017-08-07T15:15:43.501Z,98493.57
2017-08-07T15:18:10.949Z,98491.59
2017-08-07T15:20:38.416Z,98493.57
2017-08-07T15:23:06.145Z,98497.13
2017-08-07T15:25:34.648Z,98476.51
2017-08-07T15:28:02.273Z,98485.96
2017-08-07T15:30:30.624Z,98484.05
2017-08-07T15:32:58.117Z,98482.38
2017-08-07T15:35:25.567Z,98479.09
2017-08-07T15:37:53.008Z,98478.38
2017-08-07T15:40:20.493Z,98470.81
2017-08-07T15:42:47.946Z,98476.81
2017-08-07T15:45:16.046Z,98479.46
2017-08-07T15:47:44.302Z,98479.00
2017-08-07T15:50:11.782Z,98464.58
2017-08-07T15:52:39.248Z,98473.05
2017-08-07T15:55:07.704Z,98457.33
2017-08-07T15:57:36.602Z,98460.14
2017-08-07T16:00:04.208Z,98455.88
2017-08-07T16:02:31.870Z,98457.80
2017-08-07T16:04:59.317Z,98451.16
2017-08-07T16:07:27.531Z,98444.66
2017-08-07T16:09:55.000Z,98444.77
2017-08-07T16:12:22.872Z,98447.27
2017-08-07T16:14:50.321Z,98445.39
2017-08-07T16:17:18.806Z,98447.61
2017-08-07T16:19:47.061Z,98449.13
2017-08-07T16:22:14.835Z,98447.33
2017-08-07T16:24:42.306Z,98445.14
2017-08-07T16:27:10.305Z,98441.22
2017-08-07T16:29:49.449Z,98441.50
2017-08-07T16:32:17.811Z,98438.41
2017-08-07T16:34:45.257Z,98441.95
2017-08-07T16:37:13.113Z,98437.80
2017-08-07T16:39:40.790Z,98436.79
2017-08-07T16:42:08.373Z,98428.91
2017-08-07T16:44:36.984Z,98424.13
2017-08-07T16:47:04.433Z,98421.05
2017-08-07T16:49:31.921Z,98424.86
2017-08-07T16:51:59.359Z,98429.88
2017-08-07T16:54:27.395Z,98423.78
2017-08-07T16:56:54.883Z,98421.75
2017-08-07T16:59:22.401Z,98414.70
2017-08-07T17:01:49.849Z,98418.02
2017-08-07T17:04:19.134Z,98427.84
2017-08-07T17:06:46.695Z,98418.45
2017-08-07T17:09:14.176Z,98423.48
2017-08-07T17:11:41.696Z,98411.99
2017-08-07T17:14:09.146Z,98408.34
2017-08-07T17:16:36.642Z,98407.88
2017-08-07T17:19:04.164Z,98410.73
2017-08-07T17:21:31.649Z,98401.13
2017-08-07T17:23:59.128Z,98410.84
2017-08-07T17:26:26.601Z,98403.02
2017-08-07T17:28:55.622Z,98409.02
2017-08-07T17:31:24.994Z,98402.56
2017-08-07T17:33:54.297Z,98399.79
2017-08-07T17:36:24.113Z,98401.76
2017-08-07T17:38:57.048Z,98401.59
2017-08-07T17:41:26.544Z,98395.20
2017-08-07T17:43:55.650Z,98395.99
2017-08-07T17:46:24.855Z,98395.11
2017-08-07T17:48:54.166Z,98395.34
2017-08-07T17:53:58.506Z,98388.09
2017-08-07T17:56:25.961Z,98394.86
2017-08-07T17:58:53.438Z,98390.32
2017-08-07T18:01:20.910Z,98393.64
2017-08-07T18:03:48.379Z,98393.69
2017-08-07T18:06:15.890Z,98393.39
2017-08-07T18:08:43.358Z,98393.22
2017-08-07T18:11:10.825Z,98396.14
2017-08-07T18:13:38.326Z,98394.31
2017-08-07T18:16:05.777Z,98395.40
2017-08-07T18:18:33.231Z,98393.88
2017-08-07T18:21:00.702Z,98391.02
2017-08-07T18:23:28.294Z,98392.03
2017-08-07T18:25:55.743Z,98392.21
2017-08-07T18:28:23.206Z,98394.59
2017-08-07T18:30:50.682Z,98391.42
2017-08-07T18:33:18.443Z,98393.14
2017-08-07T18:35:45.884Z,98394.14
2017-08-07T18:38:13.358Z,98387.28
2017-08-07T18:40:40.820Z,98398.04
2017-08-07T18:43:08.272Z,98398.80
2017-08-07T18:45:36.000Z,98396.98
2017-08-07T18:48:03.464Z,98405.41
2017-08-07T18:50:30.973Z,98405.23
2017-08-07T18:52:58.422Z,98408.91
2017-08-07T18:55:25.901Z,98412.33
2017-08-07T18:57:53.400Z,98415.84
2017-08-07T19:00:21.473Z,98418.77
2017-08-07T19:02:49.198Z,98418.23
2017-08-07T19:05:16.809Z,98416.40
2017-08-07T19:07:44.844Z,98417.04
2017-08-07T19:10:12.309Z,98418.05
2017-08-07T19:12:39.753Z,98416.80
2017-08-07T19:15:07.213Z,98427.94
2017-08-07T19:17:34.719Z,98429.88
2017-08-07T19:20:02.161Z,98433.72
2017-08-07T19:22:29.621Z,98434.65
2017-08-07T19:24:57.269Z,98434.47
2017-08-07T19:27:24.721Z,98431.06
2017-08-07T19:29:52.189Z,98428.22
2017-08-07T19:32:19.688Z,98430.80
2017-08-07T19:34:47.135Z,98425.63
2017-08-07T19:37:14.623Z,98426.59
2017-08-07T19:39:42.077Z,98418.83
2017-08-07T19:42:09.558Z,98424.70
2017-08-07T19:44:37.012Z,98424.46
2017-08-07T19:47:04.491Z,98416.76
2017-08-07T19:49:31.947Z,98417.05
2017-08-07T19:51:59.452Z,98413.99
2017-08-07T19:54:27.549Z,98409.78
2017-08-07T19:56:56.099Z,98407.91
2017-08-07T19:59:23.545Z,98408.17
2017-08-07T20:01:50.989Z,98404.64
2017-08-07T20:04:18.828Z,98401.69
2017-08-07T20:06:47.125Z,98410.05
2017-08-07T20:09:14.888Z,98403.13
2017-08-07T20:11:42.357Z,98404.22
2017-08-07T20:14:09.805Z,98403.61
2017-08-07T20:16:38.681Z,98397.62
2017-08-07T20:19:07.158Z,98394.84
2017-08-07T20:21:34.613Z,98399.23
2017-08-07T20:24:02.095Z,98403.59
2017-08-07T20:26:29.802Z,98407.37
2017-08-07T20:28:58.461Z,98401.58
2017-08-07T20:31:26.094Z,98401.27
2017-08-07T20:33:53.824Z,98405.34
2017-08-07T20:36:21.296Z,98398.10
2017-08-07T20:38:48.742Z,98398.83
2017-08-07T20:41:16.714Z,98393.08
2017-08-07T20:43:45.241Z,98391.84
2017-08-07T20:46:13.619Z,98386.90
2017-08-07T20:48:41.346Z,98391.74
2017-08-07T20:51:08.819Z,98384.78
2017-08-07T20:53:37.267Z,98389.97
2017-08-07T20:56:04.744Z,98388.44
2017-08-07T20:58:32.304Z,98385.77
2017-08-07T21:01:00.171Z,98390.89
2017-08-07T21:03:27.613Z,98386.47
2017-08-07T21:05:56.137Z,98385.97
2017-08-07T21:08:25.270Z,98386.70
2017-08-07T21:10:52.858Z,98379.27
2017-08-07T21:13:20.401Z,98371.94
2017-08-07T21:15:47.873Z,98369.62
2017-08-07T21:18:15.471Z,98367.42
2017-08-07T21:20:43.241Z,98367.33
2017-08-07T21:23:10.717Z,98365.95
2017-08-07T21:25:38.161Z,98364.73
2017-08-07T21:28:05.633Z,98370.37
2017-08-07T21:30:33.104Z,98363.81
2017-08-07T21:33:01.455Z,98362.80
2017-08-07T21:35:29.857Z,98362.40
2017-08-07T21:37:58.045Z,98362.93
2017-08-07T21:40:25.532Z,98359.11
2017-08-07T21:42:53.453Z,98356.70
2017-08-07T21:45:20.959Z,98350.34
2017-08-07T21:47:48.485Z,98349.20
2017-08-07T21:50:17.128Z,98346.48
2017-08-07T21:52:45.176Z,98340.91
2017-08-07T21:55:12.659Z,98338.98
2017-08-07T21:57:40.527Z,98333.41
2017-08-07T22:00:07.972Z,98335.39
2017-08-07T22:02:35.443Z,98335.03
2017-08-07T22:05:03.709Z,98333.83
2017-08-07T22:07:31.163Z,98331.03
2017-08-07T22:09:58.611Z,98343.80
2017-08-07T22:12:26.649Z,98347.16
2017-08-07T22:14:54.655Z,98335.22
2017-08-07T22:17:22.524Z,98339.54
2017-08-07T22:19:50.582Z,98337.18
2017-08-07T22:22:18.029Z,98331.19
2017-08-07T22:24:46.481Z,98321.61
2017-08-07T22:27:14.780Z,98327.67
2017-08-07T22:29:42.568Z,98328.57
2017-08-07T22:32:10.033Z,98323.77
2017-08-07T22:34:37.777Z,98323.13
2017-08-07T22:37:05.225Z,98317.59
2017-08-07T22:39:32.673Z,98322.23
2017-08-07T22:42:00.465Z,98317.46
2017-08-07T22:44:27.906Z,98314.95
2017-08-07T22:46:55.352Z,98315.22
2017-08-07T22:49:22.821Z,98312.26
2017-08-07T22:51:50.272Z,98305.89
2017-08-07T22:54:17.768Z,98308.56
2017-08-07T22:56:45.370Z,98309.78
2017-08-07T22:59:12.809Z,98314.34
2017-08-07T23:01:40.254Z,98306.28
2017-08-07T23:04:07.732Z,98309.58
2017-08-07T23:06:35.212Z,98311.30
2017-08-07T23:09:02.710Z,98307.98
2017-08-07T23:11:30.153Z,98305.59
2017-08-07T23:13:57.625Z,98297.19
2017-08-07T23:16:25.074Z,98294.74
2017-08-07T23:18:52.669Z,98288.86
2017-08-07T23:21:20.105Z,98285.75
2017-08-07T23:23:47.608Z,98287.10
2017-08-07T23:26:15.176Z,98281.25
2017-08-07T23:28:42.624Z,98283.77
2017-08-07T23:31:10.067Z,98285.72
2017-08-07T23:33:37.529Z,98282.12
2017-08-07T23:36:04.968Z,98271.16
2017-08-07T23:38:32.446Z,98270.55
2017-08-07T23:40:59.901Z,98271.28
2017-08-07T23:43:27.520Z,98268.63
2017-08-07T23:45:54.989Z,98264.86
2017-08-07T23:48:22.453Z,98257.91
2017-08-07T23:50:49.924Z,98248.58
2017-08-07T23:53:17.374Z,98253.55
2017-08-07T23:55:44.823Z,98245.41
2017-08-07T23:58:12.477Z,98242.04
